createdAt,value
2022-10-19T00:01:20.799Z,14.31
2022-10-19T00:03:00.568Z,14.28
2022-10-19T00:04:40.447Z,14.29
2022-10-19T00:06:20.110Z,14.28
2022-10-19T00:07:59.864Z,14.27
2022-10-19T00:09:39.653Z,14.25
2022-10-19T00:11:19.418Z,14.23
2022-10-19T00:12:59.200Z,14.24
2022-10-19T00:14:38.933Z,14.24
2022-10-19T00:16:18.732Z,14.21
2022-10-19T00:17:58.486Z,14.22
2022-10-19T00:19:38.245Z,14.2
2022-10-19T00:21:18.008Z,14.2
2022-10-19T00:22:57.781Z,14.17
2022-10-19T00:24:37.558Z,14.2
2022-10-19T00:26:17.318Z,14.17
2022-10-19T00:27:57.083Z,14.17
2022-10-19T00:29:36.858Z,14.16
2022-10-19T00:31:16.640Z,14.16
2022-10-19T00:32:56.391Z,14.14
2022-10-19T00:34:36.161Z,14.14
2022-10-19T00:36:15.918Z,14.12
2022-10-19T00:37:55.703Z,14.13
2022-10-19T00:39:35.445Z,14.13
2022-10-19T00:41:15.219Z,14.12
2022-10-19T00:42:54.984Z,14.09
2022-10-19T00:44:34.753Z,14.11
2022-10-19T00:46:14.554Z,14.08
2022-10-19T00:47:54.303Z,14.09
2022-10-19T00:49:34.071Z,14.08
2022-10-19T00:51:13.837Z,14.06
2022-10-19T00:54:33.412Z,14.08
2022-10-19T00:56:13.120Z,14.07
2022-10-19T00:57:52.906Z,14.06
2022-10-19T00:59:32.664Z,14.04
2022-10-19T01:01:12.428Z,14.07
2022-10-19T01:02:52.192Z,14.06
2022-10-19T01:04:31.959Z,14.03
2022-10-19T01:06:11.739Z,14.06
2022-10-19T01:07:51.516Z,14.05
2022-10-19T01:09:31.267Z,14.05
2022-10-19T01:11:11.031Z,14.02
2022-10-19T01:12:50.791Z,14.04
2022-10-19T01:14:30.566Z,14.01
2022-10-19T01:16:10.343Z,14.01
2022-10-19T01:17:50.099Z,14
2022-10-19T01:19:29.867Z,14
2022-10-19T01:21:09.635Z,14.02
2022-10-19T01:22:49.412Z,14.02
2022-10-19T01:24:29.174Z,14.01
2022-10-19T01:26:08.974Z,13.98
2022-10-19T01:27:48.706Z,13.98
2022-10-19T01:29:28.513Z,13.98
2022-10-19T01:31:08.249Z,13.99
2022-10-19T01:32:48.021Z,13.97
2022-10-19T01:34:27.766Z,13.98
2022-10-19T01:36:07.563Z,13.98
2022-10-19T01:37:47.312Z,13.99
2022-10-19T01:39:27.079Z,13.98
2022-10-19T01:42:46.686Z,13.98
2022-10-19T01:44:26.369Z,13.99
2022-10-19T01:46:06.142Z,13.97
2022-10-19T01:47:45.916Z,13.99
2022-10-19T01:49:25.687Z,13.95
2022-10-19T01:51:05.457Z,13.96
2022-10-19T01:52:45.222Z,13.95
2022-10-19T01:54:24.978Z,13.98
2022-10-19T01:56:04.772Z,13.99
2022-10-19T01:57:44.512Z,13.96
2022-10-19T01:59:24.281Z,13.94
2022-10-19T02:01:04.043Z,13.95
2022-10-19T02:02:43.812Z,13.95
2022-10-19T02:04:23.593Z,13.94
2022-10-19T02:06:03.349Z,13.95
2022-10-19T02:07:43.127Z,13.97
2022-10-19T02:09:22.885Z,13.94
2022-10-19T02:11:02.686Z,13.94
2022-10-19T02:12:42.434Z,13.94
2022-10-19T02:14:22.206Z,13.96
2022-10-19T02:16:01.960Z,13.95
2022-10-19T02:17:41.734Z,13.95
2022-10-19T02:19:21.496Z,13.96
2022-10-19T02:21:01.289Z,13.96
2022-10-19T02:22:41.030Z,13.95
2022-10-19T02:24:20.792Z,13.93
2022-10-19T02:26:00.558Z,13.93
2022-10-19T02:27:40.339Z,13.94
2022-10-19T02:29:20.106Z,13.93
2022-10-19T02:30:59.912Z,13.94
2022-10-19T02:32:39.634Z,13.91
2022-10-19T02:34:19.408Z,13.93
2022-10-19T02:35:59.174Z,13.91
2022-10-19T02:37:38.928Z,13.92
2022-10-19T02:39:18.745Z,13.92
2022-10-19T02:40:58.465Z,13.91
2022-10-19T02:42:38.231Z,13.9
2022-10-19T02:44:18.002Z,13.91
2022-10-19T02:45:57.771Z,13.93
2022-10-19T02:47:37.562Z,13.93
2022-10-19T02:49:17.314Z,13.9
2022-10-19T02:50:57.095Z,13.93
2022-10-19T02:52:36.836Z,13.91
2022-10-19T02:54:16.616Z,13.92
2022-10-19T02:55:56.448Z,13.89
2022-10-19T02:57:36.151Z,13.91
2022-10-19T02:59:15.914Z,13.91
2022-10-19T03:00:55.715Z,13.91
2022-10-19T03:02:35.442Z,13.88
2022-10-19T03:04:15.209Z,13.91
2022-10-19T03:05:54.973Z,13.88
2022-10-19T03:07:34.753Z,13.91
2022-10-19T03:09:14.512Z,13.89
2022-10-19T03:10:54.275Z,13.9
2022-10-19T03:12:34.051Z,13.87
2022-10-19T03:14:13.911Z,13.86
2022-10-19T03:15:53.593Z,13.89
2022-10-19T03:17:33.346Z,13.89
2022-10-19T03:19:13.131Z,13.86
2022-10-19T03:20:52.894Z,13.85
2022-10-19T03:22:32.651Z,13.86
2022-10-19T03:24:12.440Z,13.85
2022-10-19T03:25:52.186Z,13.88
2022-10-19T03:27:31.965Z,13.86
2022-10-19T03:29:11.740Z,13.88
2022-10-19T03:30:51.483Z,13.84
2022-10-19T03:32:31.270Z,13.87
2022-10-19T03:34:11.078Z,13.86
2022-10-19T03:35:50.790Z,13.86
2022-10-19T03:37:30.572Z,13.87
2022-10-19T03:39:10.333Z,13.84
2022-10-19T03:40:50.099Z,13.86
2022-10-19T03:42:29.860Z,13.83
2022-10-19T03:44:09.633Z,13.83
2022-10-19T03:45:49.384Z,13.84
2022-10-19T03:47:29.163Z,13.86
2022-10-19T03:49:08.942Z,13.83
2022-10-19T03:50:48.702Z,13.86
2022-10-19T03:52:28.461Z,13.85
2022-10-19T03:54:08.236Z,13.83
2022-10-19T03:55:47.995Z,13.83
2022-10-19T03:57:27.748Z,13.86
2022-10-19T03:59:07.531Z,13.83
2022-10-19T04:00:47.290Z,13.86
2022-10-19T04:02:27.055Z,13.86
2022-10-19T04:04:06.849Z,13.83
2022-10-19T04:05:46.617Z,13.86
2022-10-19T04:07:26.345Z,13.83
2022-10-19T04:09:06.103Z,13.82
2022-10-19T04:10:45.876Z,13.83
2022-10-19T04:12:25.643Z,13.83
2022-10-19T04:14:05.449Z,13.83
2022-10-19T04:15:45.156Z,13.86
2022-10-19T04:17:25.000Z,13.84
2022-10-19T04:19:04.694Z,13.84
2022-10-19T04:20:44.454Z,13.82
2022-10-19T04:22:24.237Z,13.85
2022-10-19T04:24:03.977Z,13.85
2022-10-19T04:25:43.746Z,13.83
2022-10-19T04:27:23.565Z,13.84
2022-10-19T04:29:03.296Z,13.82
2022-10-19T04:30:43.047Z,13.84
2022-10-19T04:32:22.811Z,13.81
2022-10-19T04:34:02.584Z,13.82
2022-10-19T04:35:42.353Z,13.82
2022-10-19T04:37:22.106Z,13.82
2022-10-19T04:39:01.862Z,13.84
2022-10-19T04:40:41.661Z,13.83
2022-10-19T04:42:21.398Z,13.84
2022-10-19T04:44:01.154Z,13.85
2022-10-19T04:45:40.929Z,13.85
2022-10-19T04:47:20.721Z,13.84
2022-10-19T04:49:00.452Z,13.83
2022-10-19T04:50:40.222Z,13.82
2022-10-19T04:52:19.974Z,13.85
2022-10-19T04:53:59.756Z,13.85
2022-10-19T04:55:39.509Z,13.86
2022-10-19T04:57:19.281Z,13.82
2022-10-19T04:58:59.037Z,13.84
2022-10-19T05:00:38.805Z,13.84
2022-10-19T05:02:18.562Z,13.84
2022-10-19T05:05:38.107Z,13.84
2022-10-19T05:08:57.611Z,13.84
2022-10-19T05:10:37.389Z,13.83
2022-10-19T05:12:17.165Z,13.85
2022-10-19T05:13:56.922Z,13.82
2022-10-19T05:15:36.673Z,13.86
2022-10-19T05:17:16.450Z,13.82
2022-10-19T05:18:56.276Z,13.82
2022-10-19T05:20:35.981Z,13.85
2022-10-19T05:22:15.733Z,13.83
2022-10-19T05:23:55.537Z,13.86
2022-10-19T05:25:35.277Z,13.88
2022-10-19T05:27:15.024Z,13.94
2022-10-19T05:28:54.783Z,13.94
2022-10-19T05:30:34.555Z,14.02
2022-10-19T05:32:14.330Z,14.03
2022-10-19T05:33:54.193Z,14.04
2022-10-19T05:35:33.871Z,14.05
2022-10-19T05:37:13.625Z,14.06
2022-10-19T05:38:53.417Z,14.09
2022-10-19T05:40:33.163Z,14.13
2022-10-19T05:42:12.920Z,14.13
2022-10-19T05:43:52.689Z,14.17
2022-10-19T05:45:32.480Z,14.17
2022-10-19T05:47:12.229Z,14.23
2022-10-19T05:48:51.987Z,14.24
2022-10-19T05:50:31.764Z,14.22
2022-10-19T05:52:11.524Z,14.25
2022-10-19T05:53:51.323Z,14.25
2022-10-19T05:55:31.076Z,14.27
2022-10-19T05:57:10.829Z,14.28
2022-10-19T05:58:50.623Z,14.3
2022-10-19T06:00:30.376Z,14.32
2022-10-19T06:02:10.157Z,14.3
2022-10-19T06:03:49.909Z,14.37
2022-10-19T06:05:29.716Z,14.39
2022-10-19T06:07:09.448Z,14.34
2022-10-19T06:08:49.213Z,14.36
2022-10-19T06:10:28.994Z,14.4
2022-10-19T06:12:08.783Z,14.39
2022-10-19T06:13:48.513Z,14.4
2022-10-19T06:15:28.288Z,14.44
2022-10-19T06:17:08.058Z,14.42
2022-10-19T06:18:47.824Z,14.44
2022-10-19T06:20:27.606Z,14.48
2022-10-19T06:22:07.409Z,14.46
2022-10-19T06:23:47.140Z,14.49
2022-10-19T06:25:26.905Z,14.49
2022-10-19T06:27:06.676Z,14.49
2022-10-19T06:28:46.445Z,14.54
2022-10-19T06:30:26.217Z,14.52
2022-10-19T06:32:05.990Z,14.56
2022-10-19T06:33:45.785Z,14.56
2022-10-19T06:38:45.116Z,14.6
2022-10-19T06:40:24.836Z,14.61
2022-10-19T06:42:04.624Z,14.62
2022-10-19T06:43:44.439Z,14.63
2022-10-19T06:45:24.173Z,14.62
2022-10-19T06:47:03.920Z,14.65
2022-10-19T06:48:43.694Z,14.64
2022-10-19T06:50:23.465Z,14.67
2022-10-19T06:52:03.294Z,14.71
2022-10-19T06:53:43.004Z,14.7
2022-10-19T06:55:22.780Z,14.68
2022-10-19T06:57:02.558Z,14.71
2022-10-19T06:58:42.465Z,14.73
2022-10-19T07:00:22.230Z,14.74
2022-10-19T07:02:01.965Z,14.73
2022-10-19T07:03:41.739Z,14.74
2022-10-19T07:05:21.407Z,14.74
2022-10-19T07:07:01.162Z,14.77
2022-10-19T07:08:40.933Z,14.77
2022-10-19T07:10:20.750Z,14.81
2022-10-19T07:12:00.463Z,14.78
2022-10-19T07:13:40.262Z,14.82
2022-10-19T07:15:20.034Z,14.84
2022-10-19T07:16:59.890Z,14.83
2022-10-19T07:18:39.571Z,14.88
2022-10-19T07:20:19.346Z,14.88
2022-10-19T07:21:59.108Z,14.85
2022-10-19T07:23:38.879Z,14.9
2022-10-19T07:25:18.639Z,14.92
2022-10-19T07:26:58.407Z,14.98
2022-10-19T07:28:38.178Z,15.08
2022-10-19T07:30:17.952Z,15.19
2022-10-19T07:31:57.721Z,15.26
2022-10-19T07:35:17.255Z,15.44
2022-10-19T07:36:57.032Z,15.51
2022-10-19T07:38:36.818Z,15.6
2022-10-19T07:41:56.353Z,15.71
2022-10-19T07:43:36.122Z,15.79
2022-10-19T07:45:15.914Z,15.88
2022-10-19T07:46:55.650Z,15.93
2022-10-19T07:48:35.415Z,15.99
2022-10-19T07:50:15.188Z,16.03
2022-10-19T07:51:54.972Z,16.1
2022-10-19T07:53:34.728Z,16.16
2022-10-19T07:55:14.516Z,16.2
2022-10-19T07:56:54.290Z,16.28
2022-10-19T07:58:34.119Z,16.32
2022-10-19T08:00:13.836Z,16.35
2022-10-19T08:01:53.596Z,16.41
2022-10-19T08:03:33.352Z,16.43
2022-10-19T08:05:13.132Z,16.49
2022-10-19T08:06:52.900Z,16.49
2022-10-19T08:08:32.660Z,16.54
2022-10-19T08:10:12.447Z,16.61
2022-10-19T08:11:52.237Z,16.64
2022-10-19T08:13:31.979Z,16.67
2022-10-19T08:15:11.780Z,16.69
2022-10-19T08:16:51.618Z,16.7
2022-10-19T08:18:31.290Z,16.77
2022-10-19T08:20:11.059Z,16.79
2022-10-19T08:21:50.846Z,16.81
2022-10-19T08:23:30.592Z,16.84
2022-10-19T08:25:10.384Z,16.86
2022-10-19T08:26:50.148Z,16.87
2022-10-19T08:28:29.911Z,16.89
2022-10-19T08:30:09.740Z,16.92
2022-10-19T08:31:49.459Z,16.95
2022-10-19T08:33:29.234Z,16.98
2022-10-19T08:35:09.008Z,16.99
2022-10-19T08:36:48.767Z,17.04
2022-10-19T08:38:28.534Z,17.03
2022-10-19T08:40:08.316Z,17.06
2022-10-19T08:41:48.081Z,17.08
2022-10-19T08:43:27.850Z,17.1
2022-10-19T08:45:07.620Z,17.12
2022-10-19T08:46:47.380Z,17.14
2022-10-19T08:48:27.255Z,17.14
2022-10-19T08:50:06.965Z,17.16
2022-10-19T08:51:46.695Z,17.18
2022-10-19T08:53:26.474Z,17.2
2022-10-19T08:55:06.250Z,17.19
2022-10-19T08:56:46.017Z,17.2
2022-10-19T08:58:25.782Z,17.24
2022-10-19T09:00:05.546Z,17.25
2022-10-19T09:01:45.341Z,17.26
2022-10-19T09:03:25.094Z,17.25
2022-10-19T09:05:04.870Z,17.27
2022-10-19T09:06:44.639Z,17.29
2022-10-19T09:08:24.416Z,17.29
2022-10-19T09:10:04.172Z,17.31
2022-10-19T09:11:43.949Z,17.29
2022-10-19T09:13:23.827Z,17.32
2022-10-19T09:15:03.496Z,17.34
2022-10-19T09:16:43.256Z,17.34
2022-10-19T09:18:23.035Z,17.33
2022-10-19T09:20:02.797Z,17.34
2022-10-19T09:21:42.597Z,17.37
2022-10-19T09:23:22.348Z,17.36
2022-10-19T09:25:02.216Z,17.36
2022-10-19T09:26:41.981Z,17.36
2022-10-19T09:28:21.660Z,17.41
2022-10-19T09:30:01.418Z,17.4
2022-10-19T09:31:41.192Z,17.42
2022-10-19T09:33:20.987Z,17.41
2022-10-19T09:35:00.738Z,17.4
2022-10-19T09:36:40.509Z,17.41
2022-10-19T09:38:20.274Z,17.44
2022-10-19T09:40:00.046Z,17.44
2022-10-19T09:41:39.810Z,17.43
2022-10-19T09:43:19.587Z,17.43
2022-10-19T09:44:59.356Z,17.44
2022-10-19T09:46:39.131Z,17.41
2022-10-19T09:48:18.900Z,17.41
2022-10-19T09:51:38.441Z,17.45
2022-10-19T09:53:18.201Z,17.42
2022-10-19T09:54:57.982Z,17.43
2022-10-19T09:56:37.756Z,17.42
2022-10-19T09:58:17.517Z,17.43
2022-10-19T09:59:57.296Z,17.41
2022-10-19T10:01:37.043Z,17.4
2022-10-19T10:03:16.837Z,17.42
2022-10-19T10:04:56.591Z,17.45
2022-10-19T10:06:36.373Z,17.4
2022-10-19T10:08:16.158Z,17.42
2022-10-19T10:09:55.907Z,17.44
2022-10-19T10:11:35.678Z,17.45
2022-10-19T10:13:15.461Z,17.44
2022-10-19T10:14:55.224Z,17.45
2022-10-19T10:18:14.779Z,17.43
2022-10-19T10:19:54.526Z,17.44
2022-10-19T10:21:34.310Z,17.44
2022-10-19T10:23:14.087Z,17.44
2022-10-19T10:24:53.835Z,17.45
2022-10-19T10:26:33.617Z,17.48
2022-10-19T10:28:13.383Z,17.51
2022-10-19T10:29:53.150Z,17.49
2022-10-19T10:31:32.916Z,17.44
2022-10-19T10:33:12.688Z,17.42
2022-10-19T10:34:52.456Z,17.37
2022-10-19T10:36:32.247Z,17.35
2022-10-19T10:38:12.002Z,17.29
2022-10-19T10:39:51.772Z,17.31
2022-10-19T10:41:31.543Z,17.33
2022-10-19T10:43:11.305Z,17.32
2022-10-19T10:44:51.071Z,17.33
2022-10-19T10:46:30.855Z,17.37
2022-10-19T10:48:10.656Z,17.39
2022-10-19T10:49:50.482Z,17.37
2022-10-19T10:51:30.155Z,17.41
2022-10-19T10:53:09.922Z,17.42
2022-10-19T10:54:49.698Z,17.45
2022-10-19T10:56:29.457Z,17.45
2022-10-19T10:58:09.254Z,17.46
2022-10-19T10:59:49.015Z,17.52
2022-10-19T11:01:28.778Z,17.53
2022-10-19T11:03:08.583Z,17.54
2022-10-19T11:04:48.320Z,17.54
2022-10-19T11:06:28.099Z,17.57
2022-10-19T11:08:07.875Z,17.56
2022-10-19T11:09:47.702Z,17.61
2022-10-19T11:11:27.421Z,17.62
2022-10-19T11:13:07.190Z,17.61
2022-10-19T11:14:46.937Z,17.68
2022-10-19T11:16:26.717Z,17.65
2022-10-19T11:18:06.571Z,17.68
2022-10-19T11:19:46.322Z,17.71
2022-10-19T11:21:26.017Z,17.7
2022-10-19T11:23:05.804Z,17.75
2022-10-19T11:24:45.564Z,17.78
2022-10-19T11:26:25.344Z,17.77
2022-10-19T11:28:05.114Z,17.82
2022-10-19T11:29:44.886Z,17.83
2022-10-19T11:31:24.650Z,17.89
2022-10-19T11:33:04.410Z,17.93
2022-10-19T11:34:44.186Z,17.95
2022-10-19T11:36:24.067Z,17.95
2022-10-19T11:39:43.490Z,18
2022-10-19T11:41:23.273Z,18.04
2022-10-19T11:43:03.038Z,18.04
2022-10-19T11:44:42.821Z,18.04
2022-10-19T11:46:22.569Z,18.07
2022-10-19T11:48:02.334Z,18.11
2022-10-19T11:49:42.115Z,18.09
2022-10-19T11:51:21.884Z,18.1
2022-10-19T11:53:01.642Z,18.15
2022-10-19T11:54:41.420Z,18.15
2022-10-19T11:56:21.199Z,18.17
2022-10-19T11:58:00.962Z,18.2
2022-10-19T11:59:40.727Z,18.19
2022-10-19T12:01:20.512Z,18.23
2022-10-19T12:04:40.034Z,18.28
2022-10-19T12:06:19.824Z,18.29
2022-10-19T12:07:59.585Z,18.29
2022-10-19T12:09:39.356Z,18.33
2022-10-19T12:11:19.171Z,18.35
2022-10-19T12:12:58.910Z,18.37
2022-10-19T12:14:38.658Z,18.37
2022-10-19T12:16:18.428Z,18.39
2022-10-19T12:17:58.196Z,18.41
2022-10-19T12:19:37.976Z,18.39
2022-10-19T12:21:17.742Z,18.43
2022-10-19T12:22:57.510Z,18.45
2022-10-19T12:24:37.296Z,18.45
2022-10-19T12:26:17.055Z,18.45
2022-10-19T12:27:56.836Z,18.45
2022-10-19T12:29:36.596Z,18.5
2022-10-19T12:31:16.376Z,18.51
2022-10-19T12:32:56.142Z,18.53
2022-10-19T12:34:35.900Z,18.56
2022-10-19T12:36:15.718Z,18.54
2022-10-19T12:37:55.451Z,18.56
2022-10-19T12:41:14.988Z,18.6
2022-10-19T12:42:54.761Z,18.6
2022-10-19T12:46:14.311Z,18.6
2022-10-19T12:47:54.097Z,18.59
2022-10-19T12:49:33.843Z,18.59
2022-10-19T12:51:13.622Z,18.6
2022-10-19T12:52:53.391Z,18.64
2022-10-19T12:54:33.152Z,18.62
2022-10-19T12:56:12.920Z,18.62
2022-10-19T12:57:52.709Z,18.64
2022-10-19T12:59:32.644Z,18.65
2022-10-19T13:01:12.299Z,18.67
2022-10-19T13:02:52.156Z,18.68
2022-10-19T13:04:31.866Z,18.68
2022-10-19T13:06:11.665Z,18.7
2022-10-19T13:07:51.453Z,18.67
2022-10-19T13:09:31.126Z,18.7
2022-10-19T13:11:10.930Z,18.68
2022-10-19T13:12:50.701Z,18.7
2022-10-19T13:14:30.538Z,18.73
2022-10-19T13:16:10.321Z,18.74
2022-10-19T13:17:50.089Z,18.77
2022-10-19T13:19:29.801Z,18.76
2022-10-19T13:21:09.600Z,18.75
2022-10-19T13:22:49.365Z,18.78
2022-10-19T13:24:29.184Z,18.76
2022-10-19T13:26:08.886Z,18.78
2022-10-19T13:27:48.698Z,18.81
2022-10-19T13:29:28.337Z,18.82
2022-10-19T13:31:08.125Z,18.85
2022-10-19T13:32:47.865Z,18.84
2022-10-19T13:34:27.638Z,18.84
2022-10-19T13:36:07.436Z,18.84
2022-10-19T13:37:47.176Z,18.87
2022-10-19T13:39:26.939Z,18.87
2022-10-19T13:41:06.728Z,18.92
2022-10-19T13:42:46.487Z,18.93
2022-10-19T13:44:26.313Z,18.95
2022-10-19T13:46:06.040Z,18.99
2022-10-19T13:47:45.802Z,18.99
2022-10-19T13:49:25.573Z,19.02
2022-10-19T13:51:05.351Z,19.04
2022-10-19T13:52:45.107Z,19.06
2022-10-19T13:54:24.893Z,19.1
2022-10-19T13:56:04.662Z,19.08
2022-10-19T13:57:44.437Z,19.1
2022-10-19T13:59:24.195Z,19.12
2022-10-19T14:01:04.020Z,19.14
2022-10-19T14:02:43.749Z,19.17
2022-10-19T14:04:23.514Z,19.19
2022-10-19T14:06:03.272Z,19.21
2022-10-19T14:07:43.053Z,19.21
2022-10-19T14:09:22.813Z,19.24
2022-10-19T14:11:02.589Z,19.28
2022-10-19T14:12:42.370Z,19.26
2022-10-19T14:14:22.122Z,19.29
2022-10-19T14:16:01.897Z,19.32
2022-10-19T14:17:41.674Z,19.28
2022-10-19T14:19:21.440Z,19.32
2022-10-19T14:21:01.198Z,19.32
2022-10-19T14:22:40.986Z,19.33
2022-10-19T14:24:20.760Z,19.33
2022-10-19T14:26:00.532Z,19.35
2022-10-19T14:27:40.301Z,19.37
2022-10-19T14:29:20.069Z,19.37
2022-10-19T14:30:59.828Z,19.39
2022-10-19T14:32:39.614Z,19.39
2022-10-19T14:34:19.371Z,19.37
2022-10-19T14:35:59.150Z,19.42
2022-10-19T14:37:38.905Z,19.41
2022-10-19T14:39:18.678Z,19.42
2022-10-19T14:40:58.466Z,19.4
2022-10-19T14:42:38.226Z,19.42
2022-10-19T14:44:17.999Z,19.45
2022-10-19T14:45:57.765Z,19.42
2022-10-19T14:47:37.550Z,19.44
2022-10-19T14:49:17.315Z,19.45
2022-10-19T14:50:57.105Z,19.43
2022-10-19T14:52:36.877Z,19.43
2022-10-19T14:54:16.618Z,19.42
2022-10-19T14:55:56.390Z,19.43
2022-10-19T14:57:36.189Z,19.46
2022-10-19T14:59:15.945Z,19.46
2022-10-19T15:00:55.709Z,19.48
2022-10-19T15:02:35.471Z,19.48
2022-10-19T15:04:15.236Z,19.48
2022-10-19T15:05:55.004Z,19.45
2022-10-19T15:07:34.783Z,19.46
2022-10-19T15:09:14.578Z,19.45
2022-10-19T15:10:54.384Z,19.49
2022-10-19T15:14:13.861Z,19.48
2022-10-19T15:15:53.631Z,19.48
2022-10-19T15:17:33.413Z,19.45
2022-10-19T15:19:13.167Z,19.45
2022-10-19T15:20:52.951Z,19.45
2022-10-19T15:22:32.746Z,19.49
2022-10-19T15:24:12.484Z,19.44
2022-10-19T15:25:52.250Z,19.45
2022-10-19T15:27:32.021Z,19.45
2022-10-19T15:29:11.803Z,19.41
2022-10-19T15:30:51.575Z,19.41
2022-10-19T15:32:31.352Z,19.41
2022-10-19T15:34:11.107Z,19.37
2022-10-19T15:35:50.893Z,19.37
2022-10-19T15:37:30.647Z,19.35
2022-10-19T15:39:10.434Z,19.34
2022-10-19T15:40:50.194Z,19.35
2022-10-19T15:42:29.961Z,19.32
2022-10-19T15:44:09.732Z,19.32
2022-10-19T15:45:49.509Z,19.29
2022-10-19T15:47:29.278Z,19.26
2022-10-19T15:50:48.799Z,19.2
2022-10-19T15:52:28.576Z,19.17
2022-10-19T15:54:08.350Z,19.1
2022-10-19T15:55:48.129Z,19.09
2022-10-19T15:57:27.886Z,19.08
2022-10-19T15:59:07.652Z,19.02
2022-10-19T16:00:47.421Z,19.01
2022-10-19T16:02:27.187Z,18.96
2022-10-19T16:04:06.960Z,18.94
2022-10-19T16:05:46.717Z,18.91
2022-10-19T16:07:26.488Z,18.89
2022-10-19T16:09:06.243Z,18.86
2022-10-19T16:10:46.015Z,18.84
2022-10-19T16:12:25.798Z,18.78
2022-10-19T16:14:05.560Z,18.76
2022-10-19T16:15:45.321Z,18.75
2022-10-19T16:17:25.095Z,18.74
2022-10-19T16:19:04.901Z,18.67
2022-10-19T16:20:44.650Z,18.66
2022-10-19T16:22:24.394Z,18.65
2022-10-19T16:24:04.164Z,18.61
2022-10-19T16:25:43.935Z,18.56
2022-10-19T16:27:23.710Z,18.52
2022-10-19T16:30:43.235Z,18.43
2022-10-19T16:32:23.049Z,18.37
2022-10-19T16:34:02.775Z,18.29
2022-10-19T16:35:42.523Z,18.25
2022-10-19T16:37:22.292Z,18.2
2022-10-19T16:39:02.074Z,18.15
2022-10-19T16:40:41.830Z,18.11
2022-10-19T16:42:21.603Z,18.06
2022-10-19T16:44:01.365Z,18.03
2022-10-19T16:45:41.130Z,17.96
2022-10-19T16:47:20.894Z,17.94
2022-10-19T16:49:00.666Z,17.86
2022-10-19T16:50:40.440Z,17.86
2022-10-19T16:52:20.203Z,17.81
2022-10-19T16:53:59.969Z,17.74
2022-10-19T16:55:39.743Z,17.7
2022-10-19T16:57:19.509Z,17.68
2022-10-19T16:58:59.285Z,17.64
2022-10-19T17:00:39.043Z,17.59
2022-10-19T17:02:18.841Z,17.56
2022-10-19T17:05:38.344Z,17.46
2022-10-19T17:07:18.113Z,17.43
2022-10-19T17:08:57.875Z,17.42
2022-10-19T17:10:37.657Z,17.37
2022-10-19T17:12:17.416Z,17.32
2022-10-19T17:13:57.229Z,17.29
2022-10-19T17:15:36.952Z,17.23
2022-10-19T17:17:16.714Z,17.2
2022-10-19T17:18:56.493Z,17.17
2022-10-19T17:20:36.267Z,17.15
2022-10-19T17:22:16.014Z,17.11
2022-10-19T17:23:55.794Z,17.06
2022-10-19T17:25:35.583Z,17.04
2022-10-19T17:27:15.333Z,17.01
2022-10-19T17:28:55.093Z,16.96
2022-10-19T17:30:34.912Z,16.91
2022-10-19T17:32:14.632Z,16.87
2022-10-19T17:33:54.385Z,16.85
2022-10-19T17:35:34.172Z,16.79
2022-10-19T17:37:13.925Z,16.77
2022-10-19T17:38:53.705Z,16.73
2022-10-19T17:40:33.511Z,16.69
2022-10-19T17:42:13.229Z,16.68
2022-10-19T17:43:53.000Z,16.62
2022-10-19T17:45:32.764Z,16.62
2022-10-19T17:47:12.525Z,16.58
2022-10-19T17:48:52.303Z,16.54
2022-10-19T17:50:32.071Z,16.49
2022-10-19T17:52:11.830Z,16.48
2022-10-19T17:53:51.609Z,16.42
2022-10-19T17:55:31.371Z,16.41
2022-10-19T17:57:11.148Z,16.37
2022-10-19T17:58:50.913Z,16.32
2022-10-19T18:00:30.678Z,16.29
2022-10-19T18:02:10.454Z,16.27
2022-10-19T18:03:50.211Z,16.25
2022-10-19T18:05:29.986Z,16.19
2022-10-19T18:07:09.751Z,16.15
2022-10-19T18:08:49.500Z,16.15
2022-10-19T18:10:29.286Z,16.09
2022-10-19T18:12:09.046Z,16.06
2022-10-19T18:13:48.841Z,16.02
2022-10-19T18:15:28.576Z,15.99
2022-10-19T18:17:08.361Z,15.98
2022-10-19T18:18:48.113Z,15.94
2022-10-19T18:20:27.895Z,15.89
2022-10-19T18:22:07.653Z,15.89
2022-10-19T18:23:47.411Z,15.82
2022-10-19T18:25:27.186Z,15.79
2022-10-19T18:27:06.975Z,15.79
2022-10-19T18:28:46.718Z,15.73
2022-10-19T18:30:26.488Z,15.69
2022-10-19T18:32:06.261Z,15.69
2022-10-19T18:33:46.032Z,15.64
2022-10-19T18:35:25.788Z,15.61
2022-10-19T18:37:05.559Z,15.6
2022-10-19T18:38:45.412Z,15.55
2022-10-19T18:40:25.099Z,15.51
2022-10-19T18:42:04.857Z,15.47
2022-10-19T18:43:44.632Z,15.47
2022-10-19T18:45:24.386Z,15.41
2022-10-19T18:47:04.167Z,15.41
2022-10-19T18:48:43.920Z,15.38
2022-10-19T18:50:23.707Z,15.34
2022-10-19T18:52:03.548Z,15.29
2022-10-19T18:53:43.231Z,15.26
2022-10-19T18:55:23.011Z,15.22
2022-10-19T18:57:02.808Z,15.21
2022-10-19T18:58:42.549Z,15.17
2022-10-19T19:00:22.300Z,15.15
2022-10-19T19:02:02.072Z,15.1
2022-10-19T19:03:41.826Z,15.07
2022-10-19T19:05:21.673Z,15.05
2022-10-19T19:07:01.365Z,15.02
2022-10-19T19:08:41.138Z,15
2022-10-19T19:10:20.892Z,14.98
2022-10-19T19:12:00.659Z,14.95
2022-10-19T19:13:40.426Z,14.92
2022-10-19T19:15:20.213Z,14.89
2022-10-19T19:16:59.973Z,14.84
2022-10-19T19:18:39.734Z,14.82
2022-10-19T19:20:19.527Z,14.77
2022-10-19T19:21:59.336Z,14.77
2022-10-19T19:23:39.044Z,14.75
2022-10-19T19:25:18.810Z,14.71
2022-10-19T19:26:58.567Z,14.67
2022-10-19T19:28:38.342Z,14.64
2022-10-19T19:30:18.113Z,14.63
2022-10-19T19:31:57.906Z,14.57
2022-10-19T19:33:37.669Z,14.54
2022-10-19T19:35:17.411Z,14.51
2022-10-19T19:36:57.194Z,14.51
2022-10-19T19:38:36.941Z,14.45
2022-10-19T19:40:16.711Z,14.42
2022-10-19T19:41:56.488Z,14.39
2022-10-19T19:43:36.264Z,14.39
2022-10-19T19:45:16.029Z,14.34
2022-10-19T19:46:55.775Z,14.34
2022-10-19T19:48:35.553Z,14.3
2022-10-19T19:51:55.079Z,14.25
2022-10-19T19:53:34.848Z,14.19
2022-10-19T19:55:14.609Z,14.19
2022-10-19T19:56:54.382Z,14.16
2022-10-19T19:58:34.173Z,14.13
2022-10-19T20:00:13.919Z,14.1
2022-10-19T20:01:53.695Z,14.05
2022-10-19T20:03:33.450Z,14.05
2022-10-19T20:05:13.258Z,14.02
2022-10-19T20:06:52.994Z,13.97
2022-10-19T20:08:32.761Z,13.96
2022-10-19T20:10:12.535Z,13.91
2022-10-19T20:11:52.298Z,13.91
2022-10-19T20:13:32.056Z,13.87
2022-10-19T20:15:11.862Z,13.81
2022-10-19T20:16:51.592Z,13.82
2022-10-19T20:18:31.359Z,13.79
2022-10-19T20:20:11.157Z,13.74
2022-10-19T20:21:50.894Z,13.73
2022-10-19T20:23:30.672Z,13.7
2022-10-19T20:25:10.447Z,13.64
2022-10-19T20:26:50.217Z,13.65
2022-10-19T20:28:29.970Z,13.61
2022-10-19T20:30:09.739Z,13.59
2022-10-19T20:31:49.500Z,13.54
2022-10-19T20:33:29.263Z,13.53
2022-10-19T20:35:09.033Z,13.48
2022-10-19T20:36:48.814Z,13.48
2022-10-19T20:38:28.576Z,13.45
2022-10-19T20:40:08.343Z,13.41
2022-10-19T20:41:48.104Z,13.38
2022-10-19T20:43:27.870Z,13.38
2022-10-19T20:45:07.655Z,13.35
2022-10-19T20:46:47.411Z,13.31
2022-10-19T20:48:27.176Z,13.3
2022-10-19T20:50:06.938Z,13.27
2022-10-19T20:51:46.700Z,13.24
2022-10-19T20:53:26.481Z,13.2
2022-10-19T20:56:46.002Z,13.17
2022-10-19T20:58:25.772Z,13.11
2022-10-19T21:00:05.537Z,13.1
2022-10-19T21:01:45.307Z,13.08
2022-10-19T21:03:25.115Z,13.06
2022-10-19T21:05:04.872Z,13.03
2022-10-19T21:06:44.612Z,13
2022-10-19T21:08:24.388Z,12.96
2022-10-19T21:10:04.146Z,12.93
2022-10-19T21:11:43.924Z,12.94
2022-10-19T21:13:23.677Z,12.88
2022-10-19T21:15:03.455Z,12.87
2022-10-19T21:16:43.225Z,12.86
2022-10-19T21:18:23.006Z,12.8
2022-10-19T21:21:42.521Z,12.77
2022-10-19T21:23:22.292Z,12.76
2022-10-19T21:25:02.058Z,12.72
2022-10-19T21:26:41.836Z,12.7
2022-10-19T21:28:21.587Z,12.66
2022-10-19T21:30:01.427Z,12.64
2022-10-19T21:31:41.123Z,12.6
2022-10-19T21:33:20.902Z,12.57
2022-10-19T21:35:00.670Z,12.56
2022-10-19T21:36:40.427Z,12.55
2022-10-19T21:38:20.190Z,12.53
2022-10-19T21:39:59.977Z,12.5
2022-10-19T21:41:39.732Z,12.45
2022-10-19T21:43:19.495Z,12.43
2022-10-19T21:44:59.265Z,12.42
2022-10-19T21:46:39.041Z,12.39
2022-10-19T21:48:18.803Z,12.39
2022-10-19T21:49:58.576Z,12.34
2022-10-19T21:51:38.333Z,12.31
2022-10-19T21:53:18.105Z,12.29
2022-10-19T21:54:57.909Z,12.29
2022-10-19T21:56:37.634Z,12.25
2022-10-19T21:58:17.392Z,12.25
2022-10-19T21:59:57.180Z,12.19
2022-10-19T22:01:36.932Z,12.2
2022-10-19T22:03:16.699Z,12.17